Terminal Aerodrome Forecast
Issued by NWS Des Moines, IA

Home | Current Version | Previous Version | Text Only | Print | Product List | Glossary On
Versions: 1 2 3 4 5 6 7 8 9 10 11 12 13 14 15 16 17 18 19 20 21 22 23 24 25 26 27 28 29 30 31 32 33 34 35 36 37 38 39 40 41 42 43 44 45 46 47 48 49 50
000
FTUS43 KDMX 201727
TAFALO
TAF
KALO 201727Z 2018/2118 16005KT 3SM BR OVC003
     FM201900 14004KT 2SM BR OVC003
     FM210100 11005KT 1/2SM FG VCSH OVC002
     FM210400 11006KT 1/4SM -RA FG OVC002
     FM211200 14007KT 1/2SM FG VCSH BKN002
     FM211600 15007KT 1SM BR BKN003=

USA.gov is the U.S. government's official web portal to all federal, state and local government web resources and services.